createdAt,value
2019-06-08T00:00:13.228Z,17.10
2019-06-08T00:02:42.732Z,17.10
2019-06-08T00:05:12.552Z,17.10
2019-06-08T00:07:41.249Z,17.10
2019-06-08T00:10:10.242Z,17.10
2019-06-08T00:12:38.764Z,17.20
2019-06-08T00:15:08.044Z,17.10
2019-06-08T00:17:38.846Z,17.20
2019-06-08T00:20:08.251Z,17.10
2019-06-08T00:22:36.708Z,17.10
2019-06-08T00:25:05.992Z,17.10
2019-06-08T00:27:34.419Z,17.00
2019-06-08T00:30:04.400Z,17.00
2019-06-08T00:32:33.256Z,17.00
2019-06-08T00:35:01.798Z,17.00
2019-06-08T00:37:30.306Z,16.90
2019-06-08T00:40:18.929Z,17.00
2019-06-08T00:42:47.499Z,16.90
2019-06-08T00:45:17.299Z,16.90
2019-06-08T00:47:48.067Z,16.90
2019-06-08T00:50:16.716Z,16.90
2019-06-08T00:52:45.377Z,16.90
2019-06-08T00:55:14.043Z,16.80
2019-06-08T00:57:42.513Z,16.80
2019-06-08T01:00:11.735Z,16.70
2019-06-08T01:02:40.326Z,16.70
2019-06-08T01:05:09.207Z,16.70
2019-06-08T01:07:40.728Z,16.70
2019-06-08T01:10:10.004Z,16.70
2019-06-08T01:12:38.599Z,16.60
2019-06-08T01:15:08.415Z,16.60
2019-06-08T01:17:37.087Z,16.60
2019-06-08T01:20:06.775Z,16.60
2019-06-08T01:22:35.291Z,16.60
2019-06-08T01:25:04.279Z,16.50
2019-06-08T01:27:32.801Z,16.50
2019-06-08T01:30:08.923Z,16.40
2019-06-08T01:32:37.452Z,16.50
2019-06-08T01:35:06.200Z,16.50
2019-06-08T01:37:34.660Z,16.40
2019-06-08T01:40:23.262Z,16.50
2019-06-08T01:42:51.845Z,16.40
2019-06-08T01:45:33.197Z,16.40
2019-06-08T01:48:18.629Z,16.40
2019-06-08T01:50:33.690Z,16.50
2019-06-08T01:53:02.452Z,16.50
2019-06-08T01:55:31.209Z,16.50
2019-06-08T01:57:59.917Z,16.50
2019-06-08T02:00:47.793Z,16.40
2019-06-08T02:03:16.249Z,16.40
2019-06-08T02:05:44.842Z,16.40
2019-06-08T02:08:13.361Z,16.40
2019-06-08T02:10:41.864Z,16.40
2019-06-08T02:13:10.328Z,16.40
2019-06-08T02:15:38.760Z,16.40
2019-06-08T02:18:07.366Z,16.40
2019-06-08T02:20:35.898Z,16.40
2019-06-08T02:23:04.579Z,16.40
2019-06-08T02:25:33.603Z,16.40
2019-06-08T02:28:02.131Z,16.40
2019-06-08T02:30:34.223Z,16.30
2019-06-08T02:33:02.394Z,16.30
2019-06-08T02:35:32.619Z,16.30
2019-06-08T02:38:01.076Z,16.30
2019-06-08T02:40:30.810Z,16.30
2019-06-08T02:42:59.911Z,16.30
2019-06-08T02:45:30.297Z,16.30
2019-06-08T02:47:59.913Z,16.30
2019-06-08T02:50:46.646Z,16.20
2019-06-08T02:53:15.244Z,16.20
2019-06-08T02:55:44.218Z,16.20
2019-06-08T02:58:14.583Z,16.20
2019-06-08T03:00:45.823Z,16.20
2019-06-08T03:03:15.088Z,16.20
2019-06-08T03:05:43.821Z,16.10
2019-06-08T03:08:12.701Z,16.10
2019-06-08T03:10:43.859Z,16.10
2019-06-08T03:13:12.628Z,16.00
2019-06-08T03:15:43.533Z,16.00
2019-06-08T03:18:11.263Z,16.00
2019-06-08T03:20:46.512Z,16.00
2019-06-08T03:23:14.969Z,16.00
2019-06-08T03:25:51.905Z,15.90
2019-06-08T03:28:34.971Z,15.90
2019-06-08T03:31:03.209Z,15.90
2019-06-08T03:33:55.734Z,15.90
2019-06-08T03:36:21.176Z,15.90
2019-06-08T03:38:49.616Z,15.90
2019-06-08T03:41:18.078Z,15.90
2019-06-08T03:43:46.512Z,15.90
2019-06-08T03:46:14.967Z,15.90
2019-06-08T03:48:45.800Z,15.90
2019-06-08T03:51:13.686Z,15.90
2019-06-08T03:53:44.429Z,15.90
2019-06-08T03:56:12.429Z,15.90
2019-06-08T03:58:42.594Z,15.90
2019-06-08T04:01:19.158Z,15.90
2019-06-08T04:03:47.657Z,15.80
2019-06-08T04:06:16.234Z,15.90
2019-06-08T04:09:05.474Z,15.90
2019-06-08T04:11:34.235Z,15.90
2019-06-08T04:14:02.668Z,15.80
2019-06-08T04:16:31.191Z,15.80
2019-06-08T04:18:59.647Z,15.80
2019-06-08T04:21:28.093Z,15.70
2019-06-08T04:23:56.536Z,15.70
2019-06-08T04:26:25.040Z,15.70
2019-06-08T04:28:53.546Z,15.70
2019-06-08T04:31:41.875Z,15.80
2019-06-08T04:34:10.495Z,15.70
2019-06-08T04:36:39.010Z,15.70
2019-06-08T04:39:08.321Z,15.70
2019-06-08T04:41:38.364Z,15.70
2019-06-08T04:44:06.981Z,15.70
2019-06-08T04:46:35.440Z,15.60
2019-06-08T04:49:03.963Z,15.60
2019-06-08T04:51:32.396Z,15.70
2019-06-08T04:54:00.857Z,15.60
2019-06-08T04:56:29.560Z,15.60
2019-06-08T04:58:58.026Z,15.60
2019-06-08T05:01:26.466Z,15.60
2019-06-08T05:04:00.881Z,15.60
2019-06-08T05:06:29.394Z,15.70
2019-06-08T05:08:57.962Z,15.60
2019-06-08T05:11:26.492Z,15.70
2019-06-08T05:13:54.955Z,15.60
2019-06-08T05:16:23.464Z,15.60
2019-06-08T05:18:52.004Z,15.70
2019-06-08T05:21:20.456Z,15.80
2019-06-08T05:23:58.014Z,15.80
2019-06-08T05:26:19.157Z,15.80
2019-06-08T05:28:47.739Z,15.90
2019-06-08T05:31:16.186Z,15.70
2019-06-08T05:33:45.507Z,15.70
2019-06-08T05:36:14.068Z,15.80
2019-06-08T05:38:43.457Z,15.90
2019-06-08T05:41:12.004Z,15.90
2019-06-08T05:43:41.633Z,15.90
2019-06-08T05:46:10.209Z,15.90
2019-06-08T05:48:39.767Z,15.80
2019-06-08T05:51:08.352Z,15.80
2019-06-08T05:53:36.888Z,15.80
2019-06-08T05:56:05.391Z,15.80
2019-06-08T05:58:33.855Z,15.80
2019-06-08T06:01:02.312Z,15.80
2019-06-08T06:03:30.857Z,15.90
2019-06-08T06:05:59.341Z,15.90
2019-06-08T06:08:27.799Z,15.90
2019-06-08T06:10:57.240Z,16.00
2019-06-08T06:13:45.188Z,16.00
2019-06-08T06:16:13.717Z,15.90
2019-06-08T06:18:42.915Z,15.90
2019-06-08T06:21:12.331Z,16.00
2019-06-08T06:23:41.236Z,15.90
2019-06-08T06:26:09.696Z,15.90
2019-06-08T06:28:38.145Z,15.90
2019-06-08T06:31:26.020Z,15.90
2019-06-08T06:33:54.470Z,15.90
2019-06-08T06:36:23.067Z,16.00
2019-06-08T06:38:52.270Z,16.00
2019-06-08T06:41:21.035Z,16.10
2019-06-08T06:43:50.423Z,16.10
2019-06-08T06:46:19.113Z,16.20
2019-06-08T06:48:48.313Z,16.20
2019-06-08T06:51:26.231Z,16.30
2019-06-08T06:53:48.794Z,16.40
2019-06-08T06:56:23.734Z,16.50
2019-06-08T06:58:52.182Z,16.40
2019-06-08T07:01:20.699Z,16.40
2019-06-08T07:03:50.127Z,16.50
2019-06-08T07:06:18.667Z,16.50
2019-06-08T07:08:48.155Z,16.60
2019-06-08T07:11:16.751Z,16.60
2019-06-08T07:13:45.284Z,16.50
2019-06-08T07:16:34.272Z,16.50
2019-06-08T07:19:02.722Z,16.50
2019-06-08T07:21:41.288Z,16.60
2019-06-08T07:24:01.402Z,16.60
2019-06-08T07:26:29.911Z,16.70
2019-06-08T07:28:58.933Z,16.70
2019-06-08T07:31:27.586Z,16.90
2019-06-08T07:33:56.195Z,17.00
2019-06-08T07:36:36.617Z,17.20
2019-06-08T07:39:07.491Z,17.10
2019-06-08T07:41:35.947Z,17.10
2019-06-08T07:44:25.251Z,17.20
2019-06-08T07:46:53.860Z,17.30
2019-06-08T07:49:22.324Z,17.30
2019-06-08T07:52:10.783Z,17.30
2019-06-08T07:54:39.628Z,17.10
2019-06-08T07:57:08.075Z,17.10
2019-06-08T07:59:36.515Z,17.10
2019-06-08T08:02:05.116Z,17.10
2019-06-08T08:04:33.571Z,17.10
2019-06-08T08:07:02.032Z,17.10
2019-06-08T08:09:30.797Z,17.20
2019-06-08T08:11:59.678Z,17.10
2019-06-08T08:14:28.330Z,17.20
2019-06-08T08:16:57.214Z,17.20
2019-06-08T08:19:45.128Z,17.30
2019-06-08T08:22:23.128Z,17.40
2019-06-08T08:24:43.781Z,17.50
2019-06-08T08:27:31.552Z,17.50
2019-06-08T08:30:01.849Z,17.40
2019-06-08T08:32:30.244Z,17.30
2019-06-08T08:35:00.880Z,17.20
2019-06-08T08:37:28.876Z,17.20
2019-06-08T08:39:59.649Z,17.10
2019-06-08T08:42:30.059Z,17.10
2019-06-08T08:45:18.277Z,17.00
2019-06-08T08:47:48.486Z,16.90
2019-06-08T08:50:38.307Z,16.90
2019-06-08T08:53:08.370Z,16.90
2019-06-08T08:55:37.966Z,17.00
2019-06-08T08:58:08.404Z,17.00
2019-06-08T09:00:59.459Z,17.00
2019-06-08T09:03:30.938Z,16.90
2019-06-08T09:06:00.539Z,16.90
2019-06-08T09:08:29.503Z,16.90
2019-06-08T09:10:59.792Z,17.10
2019-06-08T09:13:28.144Z,17.30
2019-06-08T09:15:58.515Z,17.30
2019-06-08T09:18:28.694Z,17.60
2019-06-08T09:21:00.431Z,18.10
2019-06-08T09:23:28.118Z,18.30
2019-06-08T09:26:04.245Z,18.60
2019-06-08T09:28:28.494Z,18.40
2019-06-08T09:31:00.333Z,18.50
2019-06-08T09:33:28.842Z,18.60
2019-06-08T09:35:59.954Z,18.60
2019-06-08T09:38:28.695Z,18.50
2019-06-08T09:41:18.651Z,18.60
2019-06-08T09:43:48.724Z,18.60
2019-06-08T09:46:17.905Z,18.60
2019-06-08T09:49:09.370Z,18.50
2019-06-08T09:51:37.902Z,18.40
2019-06-08T09:54:11.871Z,18.40
2019-06-08T09:56:37.949Z,18.40
2019-06-08T09:59:10.574Z,18.50
2019-06-08T10:01:38.435Z,18.50
2019-06-08T10:04:09.211Z,18.50
2019-06-08T10:06:37.668Z,18.60
2019-06-08T10:09:09.092Z,18.60
2019-06-08T10:11:38.128Z,18.60
2019-06-08T10:14:11.667Z,18.70
2019-06-08T10:16:38.329Z,18.80
2019-06-08T10:19:10.046Z,19.00
2019-06-08T10:21:56.911Z,19.10
2019-06-08T10:24:25.448Z,19.40
2019-06-08T10:27:01.175Z,19.40
2019-06-08T10:29:29.956Z,19.40
2019-06-08T10:31:59.417Z,19.30
2019-06-08T10:34:29.676Z,19.40
2019-06-08T10:37:03.389Z,19.40
2019-06-08T10:39:28.459Z,19.40
2019-06-08T10:41:59.853Z,19.50
2019-06-08T10:44:28.382Z,19.50
2019-06-08T10:47:01.367Z,19.40
2019-06-08T10:49:28.685Z,19.50
2019-06-08T10:52:01.161Z,19.50
2019-06-08T10:54:27.795Z,19.60
2019-06-08T10:56:59.664Z,19.60
2019-06-08T10:59:28.815Z,19.50
2019-06-08T11:02:00.960Z,19.60
2019-06-08T11:04:28.695Z,19.60
2019-06-08T11:07:00.223Z,19.80
2019-06-08T11:09:28.500Z,20.20
2019-06-08T11:11:58.367Z,20.20
2019-06-08T11:14:27.421Z,20.20
2019-06-08T11:16:55.940Z,20.10
2019-06-08T11:19:26.418Z,20.00
2019-06-08T11:21:54.656Z,20.10
2019-06-08T11:24:25.141Z,20.20
2019-06-08T11:26:53.289Z,20.10
2019-06-08T11:29:21.805Z,19.90
2019-06-08T11:31:50.989Z,20.00
2019-06-08T11:34:21.843Z,20.10
2019-06-08T11:36:51.559Z,20.30
2019-06-08T11:39:20.540Z,20.00
2019-06-08T11:41:49.062Z,19.90
2019-06-08T11:44:18.180Z,19.80
2019-06-08T11:46:47.769Z,19.90
2019-06-08T11:49:18.564Z,19.90
2019-06-08T11:51:47.837Z,20.20
2019-06-08T11:54:38.018Z,20.10
2019-06-08T11:57:09.373Z,20.00
2019-06-08T11:59:37.442Z,20.20
2019-06-08T12:02:14.040Z,20.20
2019-06-08T12:04:45.214Z,20.20
2019-06-08T12:07:13.986Z,20.10
2019-06-08T12:09:42.854Z,20.20
2019-06-08T12:12:17.222Z,20.10
2019-06-08T12:14:41.600Z,20.20
2019-06-08T12:17:12.801Z,20.00
2019-06-08T12:19:40.443Z,20.30
2019-06-08T12:22:11.320Z,20.30
2019-06-08T12:24:42.248Z,20.50
2019-06-08T12:27:19.919Z,20.40
2019-06-08T12:29:39.478Z,20.40
2019-06-08T12:32:10.473Z,20.40
2019-06-08T12:34:38.473Z,20.50
2019-06-08T12:37:12.157Z,20.60
2019-06-08T12:39:38.738Z,20.90
2019-06-08T12:42:09.570Z,21.40
2019-06-08T12:44:38.225Z,22.20
2019-06-08T12:47:10.719Z,22.10
2019-06-08T12:49:39.975Z,21.80
2019-06-08T12:52:08.652Z,22.00
2019-06-08T12:54:38.045Z,21.90
2019-06-08T12:57:09.732Z,21.60
2019-06-08T12:59:38.488Z,21.30
2019-06-08T13:02:08.756Z,21.40
2019-06-08T13:04:38.421Z,22.10
2019-06-08T13:07:09.738Z,22.40
2019-06-08T13:09:38.124Z,22.50
2019-06-08T13:12:07.937Z,22.90
2019-06-08T13:14:38.551Z,22.70
2019-06-08T13:17:08.685Z,22.30
2019-06-08T13:19:38.695Z,22.10
2019-06-08T13:22:08.997Z,22.70
2019-06-08T13:24:37.803Z,23.30
2019-06-08T13:27:06.836Z,23.50
2019-06-08T13:29:35.622Z,23.60
2019-06-08T13:32:04.281Z,22.90
2019-06-08T13:34:32.732Z,22.90
2019-06-08T13:37:01.178Z,22.80
2019-06-08T13:39:29.645Z,22.40
2019-06-08T13:41:58.096Z,22.20
2019-06-08T13:44:27.872Z,21.80
2019-06-08T13:47:18.489Z,22.50
2019-06-08T13:49:47.993Z,22.90
2019-06-08T13:52:19.034Z,23.20
2019-06-08T13:54:47.976Z,22.90
2019-06-08T13:57:19.991Z,23.10
2019-06-08T13:59:48.621Z,23.90
2019-06-08T14:02:18.803Z,24.20
2019-06-08T14:04:49.160Z,23.60
2019-06-08T14:07:23.692Z,23.50
2019-06-08T14:09:49.315Z,23.10
2019-06-08T14:12:20.156Z,23.40
2019-06-08T14:14:48.087Z,23.00
2019-06-08T14:17:19.773Z,22.90
2019-06-08T14:19:48.340Z,23.40
2019-06-08T14:22:20.099Z,23.20
2019-06-08T14:24:47.875Z,23.40
2019-06-08T14:27:17.138Z,23.30
2019-06-08T14:29:45.816Z,22.90
2019-06-08T14:32:17.566Z,22.60
2019-06-08T14:34:49.739Z,22.20
2019-06-08T14:37:15.607Z,21.80
2019-06-08T14:39:44.073Z,21.50
2019-06-08T14:42:24.902Z,21.10
2019-06-08T14:44:49.629Z,20.90
2019-06-08T14:47:18.774Z,20.80
2019-06-08T14:49:48.861Z,20.80
2019-06-08T14:52:20.285Z,21.10
2019-06-08T14:54:48.190Z,21.20
2019-06-08T14:57:19.354Z,21.30
2019-06-08T14:59:50.065Z,21.40
2019-06-08T15:02:19.388Z,21.50
2019-06-08T15:04:48.483Z,21.30
2019-06-08T15:07:20.144Z,21.40
2019-06-08T15:09:53.375Z,21.40
2019-06-08T15:12:41.180Z,21.50
2019-06-08T15:15:11.185Z,21.40
2019-06-08T15:17:40.013Z,21.50
2019-06-08T15:20:09.192Z,21.40
2019-06-08T15:22:38.852Z,21.50
2019-06-08T15:25:11.163Z,21.40
2019-06-08T15:27:39.053Z,21.40
2019-06-08T15:30:07.885Z,21.30
2019-06-08T15:32:38.581Z,21.40
2019-06-08T15:35:08.172Z,21.30
2019-06-08T15:37:38.116Z,21.30
2019-06-08T15:40:08.588Z,21.50
2019-06-08T15:42:58.504Z,21.50
2019-06-08T15:45:29.406Z,21.60
2019-06-08T15:47:58.738Z,21.50
2019-06-08T15:50:28.452Z,21.50
2019-06-08T15:52:59.825Z,21.40
2019-06-08T15:55:29.844Z,21.50
2019-06-08T15:57:58.504Z,21.50
2019-06-08T16:00:29.380Z,21.40
2019-06-08T16:03:17.001Z,21.30
2019-06-08T16:05:45.521Z,21.30
2019-06-08T16:08:13.966Z,21.30
2019-06-08T16:10:43.439Z,21.20
2019-06-08T16:13:11.914Z,21.20
2019-06-08T16:15:40.339Z,21.00
2019-06-08T16:18:08.786Z,20.90
2019-06-08T16:20:37.215Z,20.70
2019-06-08T16:23:05.868Z,20.80
2019-06-08T16:25:37.537Z,21.00
2019-06-08T16:28:04.800Z,21.00
2019-06-08T16:30:33.249Z,21.10
2019-06-08T16:33:01.799Z,20.70
2019-06-08T16:35:31.509Z,20.60
2019-06-08T16:38:00.336Z,20.60
2019-06-08T16:40:29.872Z,20.40
2019-06-08T16:42:58.466Z,20.30
2019-06-08T16:45:27.039Z,20.20
2019-06-08T16:47:55.592Z,20.30
2019-06-08T16:50:25.121Z,20.20
2019-06-08T16:52:53.709Z,20.20
2019-06-08T16:55:23.703Z,20.20
2019-06-08T16:57:52.252Z,20.10
2019-06-08T17:00:40.205Z,20.10
2019-06-08T17:02:51.375Z,20.00
2019-06-08T17:05:19.868Z,20.00
2019-06-08T17:07:48.327Z,20.00
2019-06-08T17:10:16.848Z,19.90
2019-06-08T17:12:46.316Z,19.80
2019-06-08T17:15:15.106Z,19.70
2019-06-08T17:17:43.647Z,19.70
2019-06-08T17:20:12.530Z,19.60
2019-06-08T17:22:41.035Z,19.60
2019-06-08T17:25:11.137Z,19.20
2019-06-08T17:27:40.810Z,18.70
2019-06-08T17:30:10.992Z,18.30
2019-06-08T17:32:40.600Z,18.10
2019-06-08T17:35:09.599Z,17.90
2019-06-08T17:37:38.202Z,17.80
2019-06-08T17:40:12.110Z,17.90
2019-06-08T17:42:41.647Z,18.00
2019-06-08T17:45:10.238Z,18.10
2019-06-08T17:47:38.942Z,18.10
2019-06-08T17:50:08.722Z,18.10
2019-06-08T17:52:37.272Z,18.10
2019-06-08T17:55:08.821Z,18.10
2019-06-08T17:57:51.206Z,18.20
2019-06-08T18:00:13.137Z,18.20
2019-06-08T18:02:43.752Z,18.10
2019-06-08T18:05:12.820Z,18.10
2019-06-08T18:07:43.548Z,18.10
2019-06-08T18:10:12.110Z,18.10
2019-06-08T18:12:42.963Z,18.10
2019-06-08T18:15:14.094Z,18.00
2019-06-08T18:17:45.246Z,18.00
2019-06-08T18:20:17.534Z,18.00
2019-06-08T18:22:46.517Z,18.10
2019-06-08T18:25:37.515Z,18.10
2019-06-08T18:28:10.998Z,18.10
2019-06-08T18:30:37.102Z,18.00
2019-06-08T18:33:08.494Z,18.00
2019-06-08T18:35:39.379Z,17.90
2019-06-08T18:38:07.684Z,17.90
2019-06-08T18:40:37.925Z,17.70
2019-06-08T18:43:07.608Z,17.60
2019-06-08T18:45:39.070Z,17.60
2019-06-08T18:48:07.149Z,17.60
2019-06-08T18:50:57.073Z,17.60
2019-06-08T18:53:27.184Z,17.60
2019-06-08T18:55:57.955Z,17.50
2019-06-08T18:58:27.979Z,17.50
2019-06-08T19:00:57.461Z,17.50
2019-06-08T19:03:27.887Z,17.50
2019-06-08T19:05:56.462Z,17.40
2019-06-08T19:08:27.675Z,17.40
2019-06-08T19:10:57.335Z,17.40
2019-06-08T19:13:27.157Z,17.40
2019-06-08T19:15:59.559Z,17.40
2019-06-08T19:18:26.922Z,17.40
2019-06-08T19:20:57.642Z,17.40
2019-06-08T19:23:28.014Z,17.40
2019-06-08T19:25:57.837Z,17.40
2019-06-08T19:28:35.819Z,17.40
2019-06-08T19:30:58.297Z,17.40
2019-06-08T19:33:28.868Z,17.40
2019-06-08T19:35:58.322Z,17.30
2019-06-08T19:38:27.862Z,17.30
2019-06-08T19:40:57.354Z,17.20
2019-06-08T19:43:27.800Z,17.20
2019-06-08T19:45:58.014Z,17.10
2019-06-08T19:48:30.806Z,17.10
2019-06-08T19:50:58.195Z,17.00
2019-06-08T19:53:28.674Z,17.00
2019-06-08T19:55:57.186Z,16.90
2019-06-08T19:58:28.175Z,16.90
2019-06-08T20:00:58.564Z,16.80
2019-06-08T20:03:27.508Z,16.70
2019-06-08T20:05:56.226Z,16.70
2019-06-08T20:08:29.146Z,16.70
2019-06-08T20:10:57.534Z,16.60
2019-06-08T20:13:26.059Z,16.60
2019-06-08T20:15:58.637Z,16.50
2019-06-08T20:18:25.041Z,16.50
2019-06-08T20:20:54.507Z,16.50
2019-06-08T20:23:23.192Z,16.50
2019-06-08T20:25:52.060Z,16.50
2019-06-08T20:28:21.659Z,16.40
2019-06-08T20:30:50.591Z,16.40
2019-06-08T20:33:19.285Z,16.40
2019-06-08T20:35:48.556Z,16.30
2019-06-08T20:38:25.897Z,16.40
2019-06-08T20:40:48.255Z,16.30
2019-06-08T20:43:17.663Z,16.30
2019-06-08T20:45:48.741Z,16.20
2019-06-08T20:48:18.253Z,16.20
2019-06-08T20:50:49.254Z,16.20
2019-06-08T20:53:17.733Z,16.20
2019-06-08T20:55:48.215Z,16.10
2019-06-08T20:58:17.697Z,16.10
2019-06-08T21:00:48.511Z,16.10
2019-06-08T21:03:17.523Z,16.00
2019-06-08T21:05:48.173Z,16.00
2019-06-08T21:08:17.483Z,16.00
2019-06-08T21:10:49.234Z,15.90
2019-06-08T21:13:17.942Z,15.90
2019-06-08T21:15:50.145Z,15.90
2019-06-08T21:18:19.238Z,15.90
2019-06-08T21:20:49.215Z,15.80
2019-06-08T21:23:17.868Z,15.80
2019-06-08T21:25:50.211Z,15.80
2019-06-08T21:28:17.142Z,15.70
2019-06-08T21:30:50.260Z,15.70
2019-06-08T21:33:16.507Z,15.60
2019-06-08T21:35:47.832Z,15.60
2019-06-08T21:38:23.475Z,15.60
2019-06-08T21:40:49.238Z,15.60
2019-06-08T21:43:22.427Z,15.60
2019-06-08T21:45:51.933Z,15.60
2019-06-08T21:48:21.065Z,15.60
2019-06-08T21:50:51.741Z,15.50
2019-06-08T21:53:19.782Z,15.50
2019-06-08T21:55:49.567Z,15.50
2019-06-08T21:58:18.507Z,15.50
2019-06-08T22:00:51.020Z,15.50
2019-06-08T22:03:20.343Z,15.50
2019-06-08T22:05:49.858Z,15.40
2019-06-08T22:08:18.557Z,15.40
2019-06-08T22:10:47.211Z,15.40
2019-06-08T22:13:17.461Z,15.30
2019-06-08T22:15:47.467Z,15.30
2019-06-08T22:18:18.323Z,15.20
2019-06-08T22:20:47.808Z,15.20
2019-06-08T22:23:18.021Z,15.20
2019-06-08T22:25:47.755Z,15.10
2019-06-08T22:28:17.725Z,15.10
2019-06-08T22:30:48.218Z,15.10
2019-06-08T22:33:17.563Z,15.00
2019-06-08T22:35:47.790Z,14.90
2019-06-08T22:38:17.740Z,14.90
2019-06-08T22:40:47.917Z,14.80
2019-06-08T22:43:30.461Z,14.80
2019-06-08T22:46:00.235Z,14.80
2019-06-08T22:48:29.104Z,14.80
2019-06-08T22:50:59.859Z,14.80
2019-06-08T22:53:47.899Z,14.80
2019-06-08T22:56:18.370Z,14.80
2019-06-08T22:58:48.011Z,14.70
2019-06-08T23:01:18.417Z,14.70
2019-06-08T23:03:47.604Z,14.70
2019-06-08T23:06:17.699Z,14.70
2019-06-08T23:08:48.045Z,14.70
2019-06-08T23:11:17.980Z,14.70
2019-06-08T23:13:47.250Z,14.70
2019-06-08T23:16:18.002Z,14.70
2019-06-08T23:18:47.792Z,14.70
2019-06-08T23:21:18.064Z,14.70
2019-06-08T23:23:47.736Z,14.70
2019-06-08T23:26:18.348Z,14.70
2019-06-08T23:28:47.168Z,14.70
2019-06-08T23:31:24.189Z,14.70
2019-06-08T23:33:48.185Z,14.70
2019-06-08T23:36:45.655Z,14.70
2019-06-08T23:38:48.125Z,14.70
2019-06-08T23:41:17.725Z,14.70
2019-06-08T23:43:48.109Z,14.60
2019-06-08T23:46:18.135Z,14.60
2019-06-08T23:48:48.360Z,14.60
2019-06-08T23:51:18.041Z,14.60
2019-06-08T23:54:09.861Z,14.60
2019-06-08T23:56:37.065Z,14.60
2019-06-08T23:59:05.727Z,14.60
